sensor_id;sensor_type;location;lat;lon;timestamp;P1;durP1;ratioP1;P2;durP2;ratioP2
25237;SDS011;13185;50.872;5.306;2023-05-07T00:01:01;4.57;;;2.90;;
25237;SDS011;13185;50.872;5.306;2023-05-07T00:03:27;3.38;;;3.08;;
25237;SDS011;13185;50.872;5.306;2023-05-07T00:05:53;4.07;;;2.80;;
25237;SDS011;13185;50.872;5.306;2023-05-07T00:08:19;3.20;;;2.70;;
25237;SDS011;13185;50.872;5.306;2023-05-07T00:10:45;4.05;;;2.70;;
25237;SDS011;13185;50.872;5.306;2023-05-07T00:13:11;4.50;;;2.70;;
25237;SDS011;13185;50.872;5.306;2023-05-07T00:15:37;3.60;;;3.30;;
25237;SDS011;13185;50.872;5.306;2023-05-07T00:18:03;3.92;;;3.13;;
25237;SDS011;13185;50.872;5.306;2023-05-07T00:20:28;3.22;;;2.92;;
25237;SDS011;13185;50.872;5.306;2023-05-07T00:22:54;4.22;;;3.55;;
25237;SDS011;13185;50.872;5.306;2023-05-07T00:25:19;5.45;;;2.75;;
25237;SDS011;13185;50.872;5.306;2023-05-07T00:27:45;3.58;;;3.28;;
25237;SDS011;13185;50.872;5.306;2023-05-07T00:30:10;4.95;;;3.17;;
25237;SDS011;13185;50.872;5.306;2023-05-07T00:32:36;3.33;;;3.00;;
25237;SDS011;13185;50.872;5.306;2023-05-07T00:35:03;4.65;;;3.45;;
25237;SDS011;13185;50.872;5.306;2023-05-07T00:37:29;5.38;;;3.10;;
25237;SDS011;13185;50.872;5.306;2023-05-07T00:39:55;6.68;;;3.78;;
25237;SDS011;13185;50.872;5.306;2023-05-07T00:42:20;4.40;;;3.30;;
25237;SDS011;13185;50.872;5.306;2023-05-07T00:44:46;5.13;;;3.22;;
25237;SDS011;13185;50.872;5.306;2023-05-07T00:47:12;5.97;;;3.38;;
25237;SDS011;13185;50.872;5.306;2023-05-07T00:49:39;5.18;;;3.75;;
25237;SDS011;13185;50.872;5.306;2023-05-07T00:52:08;8.98;;;3.20;;
25237;SDS011;13185;50.872;5.306;2023-05-07T00:54:36;4.80;;;3.45;;
25237;SDS011;13185;50.872;5.306;2023-05-07T00:57:02;6.10;;;3.42;;
25237;SDS011;13185;50.872;5.306;2023-05-07T00:59:29;6.38;;;3.40;;
25237;SDS011;13185;50.872;5.306;2023-05-07T01:01:56;4.57;;;3.28;;
25237;SDS011;13185;50.872;5.306;2023-05-07T01:04:22;4.03;;;3.40;;
25237;SDS011;13185;50.872;5.306;2023-05-07T01:06:49;5.55;;;3.35;;
25237;SDS011;13185;50.872;5.306;2023-05-07T01:09:16;3.95;;;3.55;;
25237;SDS011;13185;50.872;5.306;2023-05-07T01:11:42;4.35;;;3.65;;
25237;SDS011;13185;50.872;5.306;2023-05-07T01:14:09;5.60;;;3.90;;
25237;SDS011;13185;50.872;5.306;2023-05-07T01:16:35;6.10;;;4.00;;
25237;SDS011;13185;50.872;5.306;2023-05-07T01:19:01;4.97;;;4.18;;
25237;SDS011;13185;50.872;5.306;2023-05-07T01:21:27;5.53;;;3.92;;
25237;SDS011;13185;50.872;5.306;2023-05-07T01:23:58;7.80;;;4.47;;
25237;SDS011;13185;50.872;5.306;2023-05-07T01:26:24;7.47;;;3.45;;
25237;SDS011;13185;50.872;5.306;2023-05-07T01:28:50;4.82;;;4.00;;
25237;SDS011;13185;50.872;5.306;2023-05-07T01:31:16;4.93;;;4.05;;
25237;SDS011;13185;50.872;5.306;2023-05-07T01:33:42;4.32;;;3.80;;
25237;SDS011;13185;50.872;5.306;2023-05-07T01:36:11;6.40;;;4.32;;
25237;SDS011;13185;50.872;5.306;2023-05-07T01:38:38;7.47;;;4.75;;
25237;SDS011;13185;50.872;5.306;2023-05-07T01:41:05;4.45;;;4.05;;
25237;SDS011;13185;50.872;5.306;2023-05-07T01:43:30;5.78;;;4.13;;
25237;SDS011;13185;50.872;5.306;2023-05-07T01:45:57;5.93;;;4.18;;
25237;SDS011;13185;50.872;5.306;2023-05-07T01:48:24;5.55;;;4.40;;
25237;SDS011;13185;50.872;5.306;2023-05-07T01:50:49;5.57;;;4.47;;
25237;SDS011;13185;50.872;5.306;2023-05-07T01:53:16;5.13;;;4.22;;
25237;SDS011;13185;50.872;5.306;2023-05-07T01:55:42;4.88;;;4.32;;
25237;SDS011;13185;50.872;5.306;2023-05-07T01:58:11;4.70;;;4.30;;
25237;SDS011;13185;50.872;5.306;2023-05-07T02:00:37;5.68;;;4.30;;
25237;SDS011;13185;50.872;5.306;2023-05-07T02:03:03;5.15;;;4.07;;
25237;SDS011;13185;50.872;5.306;2023-05-07T02:05:40;5.68;;;4.43;;
25237;SDS011;13185;50.872;5.306;2023-05-07T02:08:13;4.70;;;4.30;;
25237;SDS011;13185;50.872;5.306;2023-05-07T02:10:38;5.18;;;4.30;;
25237;SDS011;13185;50.872;5.306;2023-05-07T02:13:05;5.93;;;4.20;;
25237;SDS011;13185;50.872;5.306;2023-05-07T02:15:31;5.85;;;4.22;;
25237;SDS011;13185;50.872;5.306;2023-05-07T02:18:06;4.63;;;4.13;;
25237;SDS011;13185;50.872;5.306;2023-05-07T02:20:33;5.63;;;4.15;;
25237;SDS011;13185;50.872;5.306;2023-05-07T02:22:58;6.80;;;4.28;;
25237;SDS011;13185;50.872;5.306;2023-05-07T02:25:26;4.65;;;4.18;;
25237;SDS011;13185;50.872;5.306;2023-05-07T02:27:51;5.38;;;4.28;;
25237;SDS011;13185;50.872;5.306;2023-05-07T02:30:19;4.35;;;3.95;;
25237;SDS011;13185;50.872;5.306;2023-05-07T02:32:46;7.63;;;4.35;;
25237;SDS011;13185;50.872;5.306;2023-05-07T02:35:12;5.40;;;4.78;;
25237;SDS011;13185;50.872;5.306;2023-05-07T02:37:37;5.68;;;4.60;;
25237;SDS011;13185;50.872;5.306;2023-05-07T02:40:04;8.60;;;4.38;;
25237;SDS011;13185;50.872;5.306;2023-05-07T02:42:30;5.40;;;4.00;;
25237;SDS011;13185;50.872;5.306;2023-05-07T02:44:56;7.28;;;4.53;;
25237;SDS011;13185;50.872;5.306;2023-05-07T02:47:21;5.15;;;4.47;;
25237;SDS011;13185;50.872;5.306;2023-05-07T02:49:47;5.05;;;4.13;;
25237;SDS011;13185;50.872;5.306;2023-05-07T02:52:13;4.97;;;4.47;;
25237;SDS011;13185;50.872;5.306;2023-05-07T02:54:38;6.10;;;4.90;;
25237;SDS011;13185;50.872;5.306;2023-05-07T02:57:04;5.18;;;4.55;;
25237;SDS011;13185;50.872;5.306;2023-05-07T02:59:29;5.45;;;4.93;;
25237;SDS011;13185;50.872;5.306;2023-05-07T03:01:56;6.82;;;4.57;;
25237;SDS011;13185;50.872;5.306;2023-05-07T03:04:21;6.03;;;5.00;;
25237;SDS011;13185;50.872;5.306;2023-05-07T03:06:47;7.40;;;5.38;;
25237;SDS011;13185;50.872;5.306;2023-05-07T03:09:12;6.43;;;4.95;;
25237;SDS011;13185;50.872;5.306;2023-05-07T03:11:38;5.28;;;4.75;;
25237;SDS011;13185;50.872;5.306;2023-05-07T03:14:04;5.70;;;4.35;;
25237;SDS011;13185;50.872;5.306;2023-05-07T03:16:30;6.72;;;4.80;;
25237;SDS011;13185;50.872;5.306;2023-05-07T03:18:56;4.70;;;4.22;;
25237;SDS011;13185;50.872;5.306;2023-05-07T03:21:21;5.35;;;4.57;;
25237;SDS011;13185;50.872;5.306;2023-05-07T03:23:47;6.10;;;5.00;;
25237;SDS011;13185;50.872;5.306;2023-05-07T03:26:12;5.15;;;4.38;;
25237;SDS011;13185;50.872;5.306;2023-05-07T03:28:38;10.48;;;4.82;;
25237;SDS011;13185;50.872;5.306;2023-05-07T03:31:07;8.57;;;4.80;;
25237;SDS011;13185;50.872;5.306;2023-05-07T03:33:38;7.10;;;5.25;;
25237;SDS011;13185;50.872;5.306;2023-05-07T03:36:14;5.55;;;4.85;;
25237;SDS011;13185;50.872;5.306;2023-05-07T03:38:40;7.15;;;4.68;;
25237;SDS011;13185;50.872;5.306;2023-05-07T03:41:05;5.80;;;4.63;;
25237;SDS011;13185;50.872;5.306;2023-05-07T03:43:31;6.40;;;4.78;;
25237;SDS011;13185;50.872;5.306;2023-05-07T03:46:02;6.00;;;4.70;;
25237;SDS011;13185;50.872;5.306;2023-05-07T03:48:28;5.50;;;4.72;;
25237;SDS011;13185;50.872;5.306;2023-05-07T03:50:57;5.68;;;4.80;;
25237;SDS011;13185;50.872;5.306;2023-05-07T03:53:24;6.95;;;5.10;;
25237;SDS011;13185;50.872;5.306;2023-05-07T03:55:50;5.90;;;5.10;;
25237;SDS011;13185;50.872;5.306;2023-05-07T03:58:16;5.07;;;4.57;;
25237;SDS011;13185;50.872;5.306;2023-05-07T04:00:42;5.10;;;4.60;;
25237;SDS011;13185;50.872;5.306;2023-05-07T04:03:17;5.72;;;5.10;;
25237;SDS011;13185;50.872;5.306;2023-05-07T04:05:43;6.00;;;4.82;;
25237;SDS011;13185;50.872;5.306;2023-05-07T04:08:08;5.80;;;5.30;;
25237;SDS011;13185;50.872;5.306;2023-05-07T04:10:38;6.35;;;5.18;;
25237;SDS011;13185;50.872;5.306;2023-05-07T04:13:07;6.28;;;5.10;;
25237;SDS011;13185;50.872;5.306;2023-05-07T04:15:35;8.00;;;6.07;;
25237;SDS011;13185;50.872;5.306;2023-05-07T04:18:01;8.77;;;5.00;;
25237;SDS011;13185;50.872;5.306;2023-05-07T04:20:27;6.50;;;5.65;;
25237;SDS011;13185;50.872;5.306;2023-05-07T04:22:58;6.93;;;5.03;;
25237;SDS011;13185;50.872;5.306;2023-05-07T04:25:24;5.88;;;4.88;;
25237;SDS011;13185;50.872;5.306;2023-05-07T04:27:54;6.90;;;4.88;;
25237;SDS011;13185;50.872;5.306;2023-05-07T04:30:21;6.82;;;5.35;;
25237;SDS011;13185;50.872;5.306;2023-05-07T04:32:46;7.03;;;5.80;;
25237;SDS011;13185;50.872;5.306;2023-05-07T04:35:13;7.72;;;5.68;;
25237;SDS011;13185;50.872;5.306;2023-05-07T04:37:40;6.65;;;4.97;;
25237;SDS011;13185;50.872;5.306;2023-05-07T04:40:06;6.18;;;5.30;;
25237;SDS011;13185;50.872;5.306;2023-05-07T04:42:32;8.07;;;5.15;;
25237;SDS011;13185;50.872;5.306;2023-05-07T04:45:01;7.70;;;5.50;;
25237;SDS011;13185;50.872;5.306;2023-05-07T04:47:29;5.53;;;4.95;;
25237;SDS011;13185;50.872;5.306;2023-05-07T04:49:55;9.35;;;5.47;;
25237;SDS011;13185;50.872;5.306;2023-05-07T04:52:20;8.20;;;5.88;;
25237;SDS011;13185;50.872;5.306;2023-05-07T04:54:47;6.88;;;6.15;;
25237;SDS011;13185;50.872;5.306;2023-05-07T04:57:13;6.63;;;5.90;;
25237;SDS011;13185;50.872;5.306;2023-05-07T04:59:41;5.80;;;5.18;;
25237;SDS011;13185;50.872;5.306;2023-05-07T05:02:07;6.25;;;5.45;;
25237;SDS011;13185;50.872;5.306;2023-05-07T05:04:33;11.95;;;5.10;;
25237;SDS011;13185;50.872;5.306;2023-05-07T05:06:58;8.15;;;5.40;;
25237;SDS011;13185;50.872;5.306;2023-05-07T05:09:24;6.72;;;5.47;;
25237;SDS011;13185;50.872;5.306;2023-05-07T05:11:50;7.75;;;6.25;;
25237;SDS011;13185;50.872;5.306;2023-05-07T05:14:15;5.93;;;5.32;;
25237;SDS011;13185;50.872;5.306;2023-05-07T05:16:41;6.50;;;5.40;;
25237;SDS011;13185;50.872;5.306;2023-05-07T05:19:06;8.00;;;5.70;;
25237;SDS011;13185;50.872;5.306;2023-05-07T05:21:38;8.45;;;6.20;;
25237;SDS011;13185;50.872;5.306;2023-05-07T05:24:07;6.95;;;6.18;;
25237;SDS011;13185;50.872;5.306;2023-05-07T05:26:32;6.38;;;5.68;;
25237;SDS011;13185;50.872;5.306;2023-05-07T05:28:58;7.57;;;5.60;;
25237;SDS011;13185;50.872;5.306;2023-05-07T05:31:25;7.00;;;6.30;;
25237;SDS011;13185;50.872;5.306;2023-05-07T05:33:51;6.63;;;5.80;;
25237;SDS011;13185;50.872;5.306;2023-05-07T05:36:17;5.97;;;5.38;;
25237;SDS011;13185;50.872;5.306;2023-05-07T05:38:44;6.32;;;5.72;;
25237;SDS011;13185;50.872;5.306;2023-05-07T05:41:11;6.53;;;5.20;;
25237;SDS011;13185;50.872;5.306;2023-05-07T05:43:36;6.28;;;5.68;;
25237;SDS011;13185;50.872;5.306;2023-05-07T05:46:02;8.05;;;6.05;;
25237;SDS011;13185;50.872;5.306;2023-05-07T05:48:29;6.40;;;5.63;;
25237;SDS011;13185;50.872;5.306;2023-05-07T05:50:55;6.32;;;5.43;;
25237;SDS011;13185;50.872;5.306;2023-05-07T05:53:21;6.18;;;5.47;;
25237;SDS011;13185;50.872;5.306;2023-05-07T05:55:46;6.10;;;5.05;;
25237;SDS011;13185;50.872;5.306;2023-05-07T05:58:12;7.68;;;5.50;;
25237;SDS011;13185;50.872;5.306;2023-05-07T06:00:42;8.20;;;6.30;;
25237;SDS011;13185;50.872;5.306;2023-05-07T06:03:09;6.00;;;5.32;;
25237;SDS011;13185;50.872;5.306;2023-05-07T06:05:35;6.93;;;5.38;;
25237;SDS011;13185;50.872;5.306;2023-05-07T06:08:01;5.65;;;5.03;;
25237;SDS011;13185;50.872;5.306;2023-05-07T06:10:31;7.10;;;4.95;;
25237;SDS011;13185;50.872;5.306;2023-05-07T06:12:56;5.47;;;4.93;;
25237;SDS011;13185;50.872;5.306;2023-05-07T06:15:22;8.13;;;5.65;;
25237;SDS011;13185;50.872;5.306;2023-05-07T06:17:48;5.30;;;4.80;;
25237;SDS011;13185;50.872;5.306;2023-05-07T06:20:14;5.22;;;4.55;;
25237;SDS011;13185;50.872;5.306;2023-05-07T06:22:40;6.78;;;4.78;;
25237;SDS011;13185;50.872;5.306;2023-05-07T06:25:08;5.60;;;5.00;;
25237;SDS011;13185;50.872;5.306;2023-05-07T06:27:35;6.70;;;4.93;;
25237;SDS011;13185;50.872;5.306;2023-05-07T06:30:01;7.40;;;4.97;;
25237;SDS011;13185;50.872;5.306;2023-05-07T06:32:27;5.05;;;4.40;;
25237;SDS011;13185;50.872;5.306;2023-05-07T06:34:53;6.10;;;4.38;;
25237;SDS011;13185;50.872;5.306;2023-05-07T06:37:19;6.38;;;4.30;;
25237;SDS011;13185;50.872;5.306;2023-05-07T06:40:00;6.00;;;4.70;;
25237;SDS011;13185;50.872;5.306;2023-05-07T06:42:28;5.63;;;4.30;;
25237;SDS011;13185;50.872;5.306;2023-05-07T06:45:00;6.15;;;4.10;;
25237;SDS011;13185;50.872;5.306;2023-05-07T06:47:28;4.10;;;3.70;;
25237;SDS011;13185;50.872;5.306;2023-05-07T06:49:54;4.47;;;3.92;;
25237;SDS011;13185;50.872;5.306;2023-05-07T06:52:23;7.15;;;4.72;;
25237;SDS011;13185;50.872;5.306;2023-05-07T06:54:49;7.32;;;4.50;;
25237;SDS011;13185;50.872;5.306;2023-05-07T06:57:17;5.53;;;4.82;;
25237;SDS011;13185;50.872;5.306;2023-05-07T06:59:42;6.22;;;4.10;;
25237;SDS011;13185;50.872;5.306;2023-05-07T07:02:09;6.53;;;4.30;;
25237;SDS011;13185;50.872;5.306;2023-05-07T07:04:34;10.90;;;4.30;;
25237;SDS011;13185;50.872;5.306;2023-05-07T07:07:04;5.20;;;3.70;;
25237;SDS011;13185;50.872;5.306;2023-05-07T07:09:30;6.40;;;3.45;;
25237;SDS011;13185;50.872;5.306;2023-05-07T07:11:57;6.90;;;3.60;;
25237;SDS011;13185;50.872;5.306;2023-05-07T07:14:23;7.47;;;3.72;;
25237;SDS011;13185;50.872;5.306;2023-05-07T07:16:50;4.95;;;3.15;;
25237;SDS011;13185;50.872;5.306;2023-05-07T07:19:18;5.95;;;3.00;;
25237;SDS011;13185;50.872;5.306;2023-05-07T07:21:46;4.25;;;3.78;;
25237;SDS011;13185;50.872;5.306;2023-05-07T07:24:13;8.98;;;3.60;;
25237;SDS011;13185;50.872;5.306;2023-05-07T07:26:44;6.25;;;3.55;;
25237;SDS011;13185;50.872;5.306;2023-05-07T07:29:11;4.30;;;3.70;;
25237;SDS011;13185;50.872;5.306;2023-05-07T07:31:38;6.32;;;3.38;;
25237;SDS011;13185;50.872;5.306;2023-05-07T07:34:04;4.63;;;3.40;;
25237;SDS011;13185;50.872;5.306;2023-05-07T07:36:30;5.30;;;3.30;;
25237;SDS011;13185;50.872;5.306;2023-05-07T07:38:56;4.43;;;3.30;;
25237;SDS011;13185;50.872;5.306;2023-05-07T07:41:21;5.90;;;3.53;;
25237;SDS011;13185;50.872;5.306;2023-05-07T07:43:47;3.92;;;3.00;;
25237;SDS011;13185;50.872;5.306;2023-05-07T07:46:13;4.55;;;2.83;;
25237;SDS011;13185;50.872;5.306;2023-05-07T07:48:39;5.03;;;3.20;;
25237;SDS011;13185;50.872;5.306;2023-05-07T07:51:04;4.75;;;3.05;;
25237;SDS011;13185;50.872;5.306;2023-05-07T07:53:31;7.40;;;3.47;;
25237;SDS011;13185;50.872;5.306;2023-05-07T07:55:56;5.25;;;3.20;;
25237;SDS011;13185;50.872;5.306;2023-05-07T07:58:25;4.50;;;2.80;;
25237;SDS011;13185;50.872;5.306;2023-05-07T08:00:51;4.93;;;2.67;;
25237;SDS011;13185;50.872;5.306;2023-05-07T08:03:17;8.05;;;3.33;;
25237;SDS011;13185;50.872;5.306;2023-05-07T08:05:46;7.35;;;3.35;;
25237;SDS011;13185;50.872;5.306;2023-05-07T08:08:12;5.15;;;3.45;;
25237;SDS011;13185;50.872;5.306;2023-05-07T08:10:39;6.45;;;3.30;;
25237;SDS011;13185;50.872;5.306;2023-05-07T08:13:11;4.68;;;3.05;;
25237;SDS011;13185;50.872;5.306;2023-05-07T08:15:39;3.80;;;2.63;;
25237;SDS011;13185;50.872;5.306;2023-05-07T08:18:05;3.90;;;2.90;;
25237;SDS011;13185;50.872;5.306;2023-05-07T08:20:32;5.95;;;2.45;;
25237;SDS011;13185;50.872;5.306;2023-05-07T08:22:59;5.80;;;2.72;;
25237;SDS011;13185;50.872;5.306;2023-05-07T08:25:26;4.70;;;2.22;;
25237;SDS011;13185;50.872;5.306;2023-05-07T08:27:51;4.70;;;2.50;;
25237;SDS011;13185;50.872;5.306;2023-05-07T08:30:18;3.28;;;2.13;;
25237;SDS011;13185;50.872;5.306;2023-05-07T08:32:44;4.80;;;2.45;;
25237;SDS011;13185;50.872;5.306;2023-05-07T08:35:10;6.25;;;2.90;;
25237;SDS011;13185;50.872;5.306;2023-05-07T08:37:36;5.97;;;2.40;;
25237;SDS011;13185;50.872;5.306;2023-05-07T08:40:02;4.55;;;2.40;;
25237;SDS011;13185;50.872;5.306;2023-05-07T08:42:32;5.38;;;2.08;;
25237;SDS011;13185;50.872;5.306;2023-05-07T08:45:02;8.40;;;2.70;;
25237;SDS011;13185;50.872;5.306;2023-05-07T08:47:35;4.27;;;2.30;;
25237;SDS011;13185;50.872;5.306;2023-05-07T08:50:07;5.50;;;2.70;;
25237;SDS011;13185;50.872;5.306;2023-05-07T08:52:33;7.15;;;2.97;;
25237;SDS011;13185;50.872;5.306;2023-05-07T08:55:01;3.92;;;2.38;;
25237;SDS011;13185;50.872;5.306;2023-05-07T08:57:31;6.55;;;2.85;;
25237;SDS011;13185;50.872;5.306;2023-05-07T08:59:57;5.93;;;2.97;;
25237;SDS011;13185;50.872;5.306;2023-05-07T09:02:23;5.65;;;2.80;;
25237;SDS011;13185;50.872;5.306;2023-05-07T09:04:49;4.82;;;3.13;;
25237;SDS011;13185;50.872;5.306;2023-05-07T09:07:16;5.15;;;2.92;;
25237;SDS011;13185;50.872;5.306;2023-05-07T09:09:44;6.63;;;3.50;;
25237;SDS011;13185;50.872;5.306;2023-05-07T09:12:11;7.40;;;3.78;;
25237;SDS011;13185;50.872;5.306;2023-05-07T09:14:37;7.30;;;3.58;;
25237;SDS011;13185;50.872;5.306;2023-05-07T09:17:03;6.07;;;3.83;;
25237;SDS011;13185;50.872;5.306;2023-05-07T09:19:29;10.48;;;4.03;;
25237;SDS011;13185;50.872;5.306;2023-05-07T09:21:59;5.93;;;3.60;;
25237;SDS011;13185;50.872;5.306;2023-05-07T09:24:34;10.02;;;3.55;;
25237;SDS011;13185;50.872;5.306;2023-05-07T09:27:06;5.53;;;4.35;;
25237;SDS011;13185;50.872;5.306;2023-05-07T09:29:34;8.77;;;4.20;;
25237;SDS011;13185;50.872;5.306;2023-05-07T09:32:07;8.90;;;3.85;;
25237;SDS011;13185;50.872;5.306;2023-05-07T09:34:35;7.28;;;3.58;;
25237;SDS011;13185;50.872;5.306;2023-05-07T09:37:01;8.18;;;3.47;;
25237;SDS011;13185;50.872;5.306;2023-05-07T09:39:44;7.43;;;3.50;;
25237;SDS011;13185;50.872;5.306;2023-05-07T09:42:13;6.25;;;3.60;;
25237;SDS011;13185;50.872;5.306;2023-05-07T09:44:45;8.50;;;3.00;;
25237;SDS011;13185;50.872;5.306;2023-05-07T09:47:18;6.45;;;2.55;;
25237;SDS011;13185;50.872;5.306;2023-05-07T09:49:50;6.85;;;2.65;;
25237;SDS011;13185;50.872;5.306;2023-05-07T09:52:25;7.93;;;2.83;;
25237;SDS011;13185;50.872;5.306;2023-05-07T09:55:00;7.88;;;2.22;;
25237;SDS011;13185;50.872;5.306;2023-05-07T09:57:29;6.30;;;1.95;;
25237;SDS011;13185;50.872;5.306;2023-05-07T09:59:59;7.05;;;2.55;;
25237;SDS011;13185;50.872;5.306;2023-05-07T10:02:34;7.03;;;1.95;;
25237;SDS011;13185;50.872;5.306;2023-05-07T10:05:02;6.55;;;2.00;;
25237;SDS011;13185;50.872;5.306;2023-05-07T10:07:31;6.40;;;2.50;;
25237;SDS011;13185;50.872;5.306;2023-05-07T10:10:02;5.57;;;2.58;;
25237;SDS011;13185;50.872;5.306;2023-05-07T10:12:34;4.88;;;2.00;;
25237;SDS011;13185;50.872;5.306;2023-05-07T10:15:06;7.82;;;2.42;;
25237;SDS011;13185;50.872;5.306;2023-05-07T10:17:37;7.50;;;2.28;;
25237;SDS011;13185;50.872;5.306;2023-05-07T10:20:04;5.72;;;2.33;;
25237;SDS011;13185;50.872;5.306;2023-05-07T10:22:43;6.45;;;2.38;;
25237;SDS011;13185;50.872;5.306;2023-05-07T10:25:16;6.57;;;2.40;;
25237;SDS011;13185;50.872;5.306;2023-05-07T10:27:49;6.72;;;2.60;;
25237;SDS011;13185;50.872;5.306;2023-05-07T10:30:31;7.97;;;3.20;;
25237;SDS011;13185;50.872;5.306;2023-05-07T10:33:00;5.00;;;2.30;;
25237;SDS011;13185;50.872;5.306;2023-05-07T10:35:37;7.57;;;2.85;;
25237;SDS011;13185;50.872;5.306;2023-05-07T10:38:06;8.88;;;3.20;;
25237;SDS011;13185;50.872;5.306;2023-05-07T10:40:35;6.45;;;2.92;;
25237;SDS011;13185;50.872;5.306;2023-05-07T10:43:05;6.80;;;2.97;;
25237;SDS011;13185;50.872;5.306;2023-05-07T10:45:37;10.90;;;3.35;;
25237;SDS011;13185;50.872;5.306;2023-05-07T10:50:34;7.97;;;2.70;;
25237;SDS011;13185;50.872;5.306;2023-05-07T10:55:51;9.25;;;3.28;;
25237;SDS011;13185;50.872;5.306;2023-05-07T10:58:43;9.20;;;3.50;;
25237;SDS011;13185;50.872;5.306;2023-05-07T11:01:48;7.88;;;3.25;;
25237;SDS011;13185;50.872;5.306;2023-05-07T11:04:15;7.18;;;2.85;;
25237;SDS011;13185;50.872;5.306;2023-05-07T11:12:49;8.93;;;3.28;;
25237;SDS011;13185;50.872;5.306;2023-05-07T11:15:37;4.82;;;2.75;;
25237;SDS011;13185;50.872;5.306;2023-05-07T11:18:15;8.37;;;2.67;;
25237;SDS011;13185;50.872;5.306;2023-05-07T11:26:12;9.45;;;3.58;;
25237;SDS011;13185;50.872;5.306;2023-05-07T11:28:43;13.25;;;8.35;;
25237;SDS011;13185;50.872;5.306;2023-05-07T11:31:10;9.73;;;3.90;;
25237;SDS011;13185;50.872;5.306;2023-05-07T11:33:37;5.93;;;2.85;;
25237;SDS011;13185;50.872;5.306;2023-05-07T11:36:05;11.00;;;3.08;;
25237;SDS011;13185;50.872;5.306;2023-05-07T11:38:38;9.90;;;3.50;;
25237;SDS011;13185;50.872;5.306;2023-05-07T11:41:03;7.90;;;3.00;;
25237;SDS011;13185;50.872;5.306;2023-05-07T11:43:32;9.68;;;3.50;;
25237;SDS011;13185;50.872;5.306;2023-05-07T11:46:10;5.30;;;2.80;;
25237;SDS011;13185;50.872;5.306;2023-05-07T11:48:36;7.53;;;2.92;;
25237;SDS011;13185;50.872;5.306;2023-05-07T11:51:04;6.63;;;2.70;;
25237;SDS011;13185;50.872;5.306;2023-05-07T11:53:40;8.02;;;3.35;;
25237;SDS011;13185;50.872;5.306;2023-05-07T11:56:13;8.90;;;2.75;;
25237;SDS011;13185;50.872;5.306;2023-05-07T11:58:40;9.40;;;3.20;;
25237;SDS011;13185;50.872;5.306;2023-05-07T12:01:08;4.25;;;3.00;;
25237;SDS011;13185;50.872;5.306;2023-05-07T12:03:35;8.43;;;2.90;;
25237;SDS011;13185;50.872;5.306;2023-05-07T12:06:02;7.53;;;3.30;;
25237;SDS011;13185;50.872;5.306;2023-05-07T12:08:31;5.65;;;2.63;;
25237;SDS011;13185;50.872;5.306;2023-05-07T12:10:56;5.28;;;2.58;;
25237;SDS011;13185;50.872;5.306;2023-05-07T12:13:23;7.47;;;2.85;;
25237;SDS011;13185;50.872;5.306;2023-05-07T12:15:53;9.05;;;2.97;;
25237;SDS011;13185;50.872;5.306;2023-05-07T12:18:20;7.97;;;2.95;;
25237;SDS011;13185;50.872;5.306;2023-05-07T12:20:47;6.70;;;2.22;;
25237;SDS011;13185;50.872;5.306;2023-05-07T12:23:13;8.25;;;3.17;;
25237;SDS011;13185;50.872;5.306;2023-05-07T12:25:43;5.57;;;2.78;;
25237;SDS011;13185;50.872;5.306;2023-05-07T12:28:16;6.05;;;2.65;;
25237;SDS011;13185;50.872;5.306;2023-05-07T12:30:46;5.40;;;2.65;;
25237;SDS011;13185;50.872;5.306;2023-05-07T12:33:16;6.88;;;2.70;;
25237;SDS011;13185;50.872;5.306;2023-05-07T12:35:47;5.25;;;2.35;;
25237;SDS011;13185;50.872;5.306;2023-05-07T12:38:14;9.88;;;2.83;;
25237;SDS011;13185;50.872;5.306;2023-05-07T12:40:46;6.65;;;2.80;;
25237;SDS011;13185;50.872;5.306;2023-05-07T12:43:18;5.00;;;2.78;;
25237;SDS011;13185;50.872;5.306;2023-05-07T12:45:46;6.47;;;2.65;;
25237;SDS011;13185;50.872;5.306;2023-05-07T12:48:14;7.63;;;2.58;;
25237;SDS011;13185;50.872;5.306;2023-05-07T12:50:39;5.18;;;2.40;;
25237;SDS011;13185;50.872;5.306;2023-05-07T12:53:06;6.85;;;3.00;;
25237;SDS011;13185;50.872;5.306;2023-05-07T12:58:18;5.05;;;2.03;;
25237;SDS011;13185;50.872;5.306;2023-05-07T13:00:47;4.47;;;2.03;;
25237;SDS011;13185;50.872;5.306;2023-05-07T13:03:21;5.85;;;2.25;;
25237;SDS011;13185;50.872;5.306;2023-05-07T13:05:54;6.40;;;2.20;;
25237;SDS011;13185;50.872;5.306;2023-05-07T13:08:28;2.88;;;1.80;;
25237;SDS011;13185;50.872;5.306;2023-05-07T13:11:06;6.40;;;2.17;;
25237;SDS011;13185;50.872;5.306;2023-05-07T13:13:33;8.85;;;2.40;;
25237;SDS011;13185;50.872;5.306;2023-05-07T13:16:00;7.07;;;2.45;;
25237;SDS011;13185;50.872;5.306;2023-05-07T13:18:29;2.78;;;1.60;;
25237;SDS011;13185;50.872;5.306;2023-05-07T13:20:55;5.70;;;1.88;;
25237;SDS011;13185;50.872;5.306;2023-05-07T13:23:20;6.22;;;2.67;;
25237;SDS011;13185;50.872;5.306;2023-05-07T13:25:49;6.07;;;2.50;;
25237;SDS011;13185;50.872;5.306;2023-05-07T13:28:19;4.47;;;2.05;;
25237;SDS011;13185;50.872;5.306;2023-05-07T13:37:18;5.65;;;1.85;;
25237;SDS011;13185;50.872;5.306;2023-05-07T13:40:14;5.45;;;1.48;;
25237;SDS011;13185;50.872;5.306;2023-05-07T13:42:59;2.95;;;1.27;;
25237;SDS011;13185;50.872;5.306;2023-05-07T13:45:54;4.78;;;1.42;;
25237;SDS011;13185;50.872;5.306;2023-05-07T13:52:07;4.78;;;1.35;;
25237;SDS011;13185;50.872;5.306;2023-05-07T13:55:15;4.05;;;1.48;;
25237;SDS011;13185;50.872;5.306;2023-05-07T13:58:15;3.50;;;1.95;;
25237;SDS011;13185;50.872;5.306;2023-05-07T14:00:50;4.25;;;1.70;;
25237;SDS011;13185;50.872;5.306;2023-05-07T14:03:55;4.82;;;1.73;;
25237;SDS011;13185;50.872;5.306;2023-05-07T14:06:48;5.03;;;1.65;;
25237;SDS011;13185;50.872;5.306;2023-05-07T14:09:45;4.80;;;1.77;;
25237;SDS011;13185;50.872;5.306;2023-05-07T14:12:45;5.18;;;1.60;;
25237;SDS011;13185;50.872;5.306;2023-05-07T14:15:26;5.05;;;1.77;;
25237;SDS011;13185;50.872;5.306;2023-05-07T14:18:15;5.45;;;2.10;;
25237;SDS011;13185;50.872;5.306;2023-05-07T14:24:37;6.45;;;1.80;;
25237;SDS011;13185;50.872;5.306;2023-05-07T14:27:18;5.05;;;2.03;;
25237;SDS011;13185;50.872;5.306;2023-05-07T14:30:02;5.00;;;1.55;;
25237;SDS011;13185;50.872;5.306;2023-05-07T14:32:36;3.30;;;1.45;;
25237;SDS011;13185;50.872;5.306;2023-05-07T14:35:38;4.30;;;1.70;;
25237;SDS011;13185;50.872;5.306;2023-05-07T14:38:03;5.88;;;1.80;;
25237;SDS011;13185;50.872;5.306;2023-05-07T14:40:29;4.55;;;1.50;;
25237;SDS011;13185;50.872;5.306;2023-05-07T14:42:55;5.55;;;2.00;;
25237;SDS011;13185;50.872;5.306;2023-05-07T14:45:22;3.70;;;1.70;;
25237;SDS011;13185;50.872;5.306;2023-05-07T14:47:47;4.55;;;1.50;;
25237;SDS011;13185;50.872;5.306;2023-05-07T14:50:13;5.60;;;1.50;;
25237;SDS011;13185;50.872;5.306;2023-05-07T14:52:39;5.82;;;2.22;;
25237;SDS011;13185;50.872;5.306;2023-05-07T14:55:04;6.50;;;1.85;;
25237;SDS011;13185;50.872;5.306;2023-05-07T14:57:30;5.35;;;2.20;;
25237;SDS011;13185;50.872;5.306;2023-05-07T15:00:00;3.58;;;1.73;;
25237;SDS011;13185;50.872;5.306;2023-05-07T15:02:26;5.82;;;2.00;;
25237;SDS011;13185;50.872;5.306;2023-05-07T15:04:52;4.28;;;1.42;;
25237;SDS011;13185;50.872;5.306;2023-05-07T15:07:18;5.93;;;1.90;;
25237;SDS011;13185;50.872;5.306;2023-05-07T15:09:43;5.38;;;1.65;;
25237;SDS011;13185;50.872;5.306;2023-05-07T15:12:10;7.70;;;1.80;;
25237;SDS011;13185;50.872;5.306;2023-05-07T15:14:37;3.00;;;1.27;;
25237;SDS011;13185;50.872;5.306;2023-05-07T15:17:03;4.95;;;1.73;;
25237;SDS011;13185;50.872;5.306;2023-05-07T15:19:28;2.97;;;1.63;;
25237;SDS011;13185;50.872;5.306;2023-05-07T15:21:56;4.78;;;1.67;;
25237;SDS011;13185;50.872;5.306;2023-05-07T15:24:23;4.85;;;1.65;;
25237;SDS011;13185;50.872;5.306;2023-05-07T15:26:49;3.95;;;1.48;;
25237;SDS011;13185;50.872;5.306;2023-05-07T15:29:16;5.40;;;1.70;;
25237;SDS011;13185;50.872;5.306;2023-05-07T15:31:42;5.05;;;1.40;;